sensor_id;sensor_type;location;lat;lon;timestamp;pressure;altitude;pressure_sealevel;temperature;humidity
77979;BME280;67169;50.268;8.694;2023-06-14T00:00:01;99346.53;;;16.58;46.64
77979;BME280;67169;50.268;8.694;2023-06-14T00:02:29;99347.41;;;16.59;45.91
77979;BME280;67169;50.268;8.694;2023-06-14T00:04:56;99351.97;;;16.58;47.65
77979;BME280;67169;50.268;8.694;2023-06-14T00:07:34;99344.06;;;16.55;46.75
77979;BME280;67169;50.268;8.694;2023-06-14T00:10:02;99352.03;;;16.44;46.66
77979;BME280;67169;50.268;8.694;2023-06-14T00:12:29;99352.91;;;16.45;46.71
77979;BME280;67169;50.268;8.694;2023-06-14T00:14:56;99352.50;;;16.38;46.67
77979;BME280;67169;50.268;8.694;2023-06-14T00:17:23;99358.53;;;16.29;47.26
77979;BME280;67169;50.268;8.694;2023-06-14T00:19:50;99355.25;;;16.24;48.48
77979;BME280;67169;50.268;8.694;2023-06-14T00:22:16;99357.31;;;16.20;47.25
77979;BME280;67169;50.268;8.694;2023-06-14T00:24:43;99348.09;;;16.23;47.44
77979;BME280;67169;50.268;8.694;2023-06-14T00:27:11;99354.59;;;16.20;47.19
77979;BME280;67169;50.268;8.694;2023-06-14T00:29:37;99328.41;;;16.06;46.63
77979;BME280;67169;50.268;8.694;2023-06-14T00:32:04;99358.69;;;16.13;48.19
77979;BME280;67169;50.268;8.694;2023-06-14T00:34:31;99356.66;;;16.17;47.47
77979;BME280;67169;50.268;8.694;2023-06-14T00:36:58;99357.75;;;16.14;47.04
77979;BME280;67169;50.268;8.694;2023-06-14T00:39:24;99363.38;;;16.11;47.94
77979;BME280;67169;50.268;8.694;2023-06-14T00:41:51;99350.28;;;16.18;46.86
77979;BME280;67169;50.268;8.694;2023-06-14T00:44:19;99307.94;;;15.88;46.99
77979;BME280;67169;50.268;8.694;2023-06-14T00:46:46;99359.88;;;16.09;46.86
77979;BME280;67169;50.268;8.694;2023-06-14T00:49:14;99308.34;;;15.82;47.60
77979;BME280;67169;50.268;8.694;2023-06-14T00:51:41;99356.03;;;15.99;48.52
77979;BME280;67169;50.268;8.694;2023-06-14T00:54:08;99347.66;;;15.89;48.08
77979;BME280;67169;50.268;8.694;2023-06-14T00:56:35;99356.81;;;16.01;47.32
77979;BME280;67169;50.268;8.694;2023-06-14T00:59:03;99344.78;;;15.78;47.61
77979;BME280;67169;50.268;8.694;2023-06-14T01:01:31;99358.69;;;15.86;47.40
77979;BME280;67169;50.268;8.694;2023-06-14T01:03:58;99357.00;;;15.71;47.32
77979;BME280;67169;50.268;8.694;2023-06-14T01:06:33;99361.31;;;15.87;47.81
77979;BME280;67169;50.268;8.694;2023-06-14T01:09:12;99368.13;;;15.80;48.14
77979;BME280;67169;50.268;8.694;2023-06-14T01:11:48;99356.50;;;15.78;47.30
77979;BME280;67169;50.268;8.694;2023-06-14T01:14:17;99358.94;;;15.83;47.71
77979;BME280;67169;50.268;8.694;2023-06-14T01:16:46;99362.19;;;15.88;48.01
77979;BME280;67169;50.268;8.694;2023-06-14T01:19:14;99364.34;;;15.83;48.22
77979;BME280;67169;50.268;8.694;2023-06-14T01:21:42;99365.56;;;15.92;47.49
77979;BME280;67169;50.268;8.694;2023-06-14T01:24:10;99364.13;;;15.86;47.88
77979;BME280;67169;50.268;8.694;2023-06-14T01:26:38;99369.78;;;15.83;48.28
77979;BME280;67169;50.268;8.694;2023-06-14T01:29:10;99363.22;;;15.73;47.43
77979;BME280;67169;50.268;8.694;2023-06-14T01:31:41;99367.25;;;15.65;48.43
77979;BME280;67169;50.268;8.694;2023-06-14T01:34:08;99370.38;;;15.59;47.77
77979;BME280;67169;50.268;8.694;2023-06-14T01:36:36;99354.38;;;15.55;48.37
77979;BME280;67169;50.268;8.694;2023-06-14T01:39:04;99361.16;;;15.62;48.57
77979;BME280;67169;50.268;8.694;2023-06-14T01:41:33;99358.25;;;15.65;48.08
77979;BME280;67169;50.268;8.694;2023-06-14T01:44:01;99353.53;;;15.69;47.99
77979;BME280;67169;50.268;8.694;2023-06-14T01:46:27;99353.81;;;15.64;48.12
77979;BME280;67169;50.268;8.694;2023-06-14T01:48:54;99349.84;;;15.55;48.18
77979;BME280;67169;50.268;8.694;2023-06-14T01:51:21;99353.44;;;15.56;48.68
77979;BME280;67169;50.268;8.694;2023-06-14T01:53:47;99360.13;;;15.50;49.00
77979;BME280;67169;50.268;8.694;2023-06-14T01:56:14;99360.47;;;15.58;48.66
77979;BME280;67169;50.268;8.694;2023-06-14T01:58:42;99357.22;;;15.53;48.62
77979;BME280;67169;50.268;8.694;2023-06-14T02:01:09;99354.38;;;15.55;49.00
77979;BME280;67169;50.268;8.694;2023-06-14T02:03:36;99355.97;;;15.59;48.57
77979;BME280;67169;50.268;8.694;2023-06-14T02:06:04;99350.81;;;15.54;48.66
77979;BME280;67169;50.268;8.694;2023-06-14T02:08:30;99348.88;;;15.56;48.06
77979;BME280;67169;50.268;8.694;2023-06-14T02:10:57;99345.59;;;15.51;48.95
77979;BME280;67169;50.268;8.694;2023-06-14T02:13:23;99350.44;;;15.46;48.77
77979;BME280;67169;50.268;8.694;2023-06-14T02:15:51;99354.91;;;15.47;48.86
77979;BME280;67169;50.268;8.694;2023-06-14T02:18:19;99355.41;;;15.39;48.91
77979;BME280;67169;50.268;8.694;2023-06-14T02:20:46;99353.94;;;15.34;48.98
77979;BME280;67169;50.268;8.694;2023-06-14T02:23:13;99361.88;;;15.37;48.85
77979;BME280;67169;50.268;8.694;2023-06-14T02:25:40;99370.69;;;15.40;49.09
77979;BME280;67169;50.268;8.694;2023-06-14T02:28:06;99363.84;;;15.35;49.24
77979;BME280;67169;50.268;8.694;2023-06-14T02:30:33;99366.63;;;15.33;49.26
77979;BME280;67169;50.268;8.694;2023-06-14T02:33:01;99359.00;;;15.26;49.58
77979;BME280;67169;50.268;8.694;2023-06-14T02:35:29;99365.47;;;15.23;49.37
77979;BME280;67169;50.268;8.694;2023-06-14T02:37:56;99364.59;;;15.23;49.59
77979;BME280;67169;50.268;8.694;2023-06-14T02:40:22;99357.25;;;15.10;49.66
77979;BME280;67169;50.268;8.694;2023-06-14T02:42:49;99369.34;;;15.19;49.63
77979;BME280;67169;50.268;8.694;2023-06-14T02:45:16;99364.97;;;15.16;49.94
77979;BME280;67169;50.268;8.694;2023-06-14T02:47:43;99358.22;;;15.09;49.71
77979;BME280;67169;50.268;8.694;2023-06-14T02:50:12;99379.81;;;15.11;50.62
77979;BME280;67169;50.268;8.694;2023-06-14T02:52:38;99379.13;;;15.07;50.49
77979;BME280;67169;50.268;8.694;2023-06-14T02:55:07;99380.25;;;15.03;50.24
77979;BME280;67169;50.268;8.694;2023-06-14T02:57:34;99381.34;;;15.01;50.91
77979;BME280;67169;50.268;8.694;2023-06-14T03:00:01;99389.75;;;14.96;50.77
77979;BME280;67169;50.268;8.694;2023-06-14T03:02:28;99386.53;;;14.89;51.15
77979;BME280;67169;50.268;8.694;2023-06-14T03:04:54;99390.22;;;14.88;50.92
77979;BME280;67169;50.268;8.694;2023-06-14T03:07:23;99393.97;;;14.86;50.97
77979;BME280;67169;50.268;8.694;2023-06-14T03:09:50;99399.41;;;14.86;51.52
77979;BME280;67169;50.268;8.694;2023-06-14T03:12:17;99402.91;;;14.88;51.53
77979;BME280;67169;50.268;8.694;2023-06-14T03:14:44;99402.41;;;14.81;51.36
77979;BME280;67169;50.268;8.694;2023-06-14T03:17:12;99399.97;;;14.77;51.94
77979;BME280;67169;50.268;8.694;2023-06-14T03:19:38;99396.38;;;14.76;51.86
77979;BME280;67169;50.268;8.694;2023-06-14T03:22:06;99408.00;;;14.78;52.09
77979;BME280;67169;50.268;8.694;2023-06-14T03:24:34;99418.16;;;14.75;52.33
77979;BME280;67169;50.268;8.694;2023-06-14T03:27:02;99418.31;;;14.71;52.63
77979;BME280;67169;50.268;8.694;2023-06-14T03:29:28;99424.03;;;14.67;52.68
77979;BME280;67169;50.268;8.694;2023-06-14T03:32:00;99426.06;;;14.63;52.88
77979;BME280;67169;50.268;8.694;2023-06-14T03:34:26;99425.44;;;14.58;53.23
77979;BME280;67169;50.268;8.694;2023-06-14T03:36:53;99410.34;;;14.54;52.96
77979;BME280;67169;50.268;8.694;2023-06-14T03:39:20;99424.91;;;14.67;53.13
77979;BME280;67169;50.268;8.694;2023-06-14T03:41:48;99427.41;;;14.70;52.22
77979;BME280;67169;50.268;8.694;2023-06-14T03:44:16;99427.41;;;14.70;53.08
77979;BME280;67169;50.268;8.694;2023-06-14T03:46:43;99429.00;;;14.59;52.79
77979;BME280;67169;50.268;8.694;2023-06-14T03:49:10;99437.75;;;14.64;52.93
77979;BME280;67169;50.268;8.694;2023-06-14T03:51:37;99381.22;;;14.28;52.73
77979;BME280;67169;50.268;8.694;2023-06-14T03:54:05;99371.75;;;14.20;53.08
77979;BME280;67169;50.268;8.694;2023-06-14T03:56:31;99408.94;;;14.47;53.06
77979;BME280;67169;50.268;8.694;2023-06-14T03:58:59;99445.56;;;14.68;53.06
77979;BME280;67169;50.268;8.694;2023-06-14T04:01:26;99456.22;;;14.71;53.27
77979;BME280;67169;50.268;8.694;2023-06-14T04:03:55;99451.59;;;14.74;53.23
77979;BME280;67169;50.268;8.694;2023-06-14T04:06:23;99369.19;;;14.33;53.28
77979;BME280;67169;50.268;8.694;2023-06-14T04:08:50;99449.66;;;14.76;53.39
77979;BME280;67169;50.268;8.694;2023-06-14T04:11:17;99441.44;;;14.63;53.54
77979;BME280;67169;50.268;8.694;2023-06-14T04:13:44;99457.78;;;14.76;53.79
77979;BME280;67169;50.268;8.694;2023-06-14T04:16:13;99439.28;;;14.68;53.92
77979;BME280;67169;50.268;8.694;2023-06-14T04:18:40;99455.06;;;14.76;53.98
77979;BME280;67169;50.268;8.694;2023-06-14T04:21:06;99451.13;;;14.81;53.98
77979;BME280;67169;50.268;8.694;2023-06-14T04:23:33;99454.81;;;14.80;54.32
77979;BME280;67169;50.268;8.694;2023-06-14T04:26:00;99457.41;;;14.82;53.90
77979;BME280;67169;50.268;8.694;2023-06-14T04:28:27;99459.25;;;14.81;54.14
77979;BME280;67169;50.268;8.694;2023-06-14T04:30:55;99461.66;;;14.86;53.98
77979;BME280;67169;50.268;8.694;2023-06-14T04:33:23;99463.34;;;14.88;53.70
77979;BME280;67169;50.268;8.694;2023-06-14T04:35:51;99466.44;;;14.96;53.68
77979;BME280;67169;50.268;8.694;2023-06-14T04:38:19;99464.63;;;14.97;53.77
77979;BME280;67169;50.268;8.694;2023-06-14T04:40:50;99476.25;;;15.13;53.57
77979;BME280;67169;50.268;8.694;2023-06-14T04:43:18;99466.75;;;15.06;53.57
77979;BME280;67169;50.268;8.694;2023-06-14T04:45:52;99477.22;;;15.12;53.20
77979;BME280;67169;50.268;8.694;2023-06-14T04:48:20;99481.66;;;15.13;53.87
77979;BME280;67169;50.268;8.694;2023-06-14T04:50:49;99471.44;;;15.18;53.75
77979;BME280;67169;50.268;8.694;2023-06-14T04:53:18;99480.53;;;15.17;54.01
77979;BME280;67169;50.268;8.694;2023-06-14T04:55:46;99491.16;;;15.20;54.43
77979;BME280;67169;50.268;8.694;2023-06-14T04:58:13;99494.84;;;15.19;53.36
77979;BME280;67169;50.268;8.694;2023-06-14T05:00:39;99493.00;;;15.20;53.68
77979;BME280;67169;50.268;8.694;2023-06-14T05:03:08;99501.97;;;15.20;53.85
77979;BME280;67169;50.268;8.694;2023-06-14T05:05:38;99436.56;;;14.98;53.81
77979;BME280;67169;50.268;8.694;2023-06-14T05:08:06;99493.00;;;15.34;54.31
77979;BME280;67169;50.268;8.694;2023-06-14T05:10:33;99489.16;;;15.38;54.03
77979;BME280;67169;50.268;8.694;2023-06-14T05:13:00;99491.09;;;15.51;53.81
77979;BME280;67169;50.268;8.694;2023-06-14T05:15:26;99427.78;;;15.09;53.94
77979;BME280;67169;50.268;8.694;2023-06-14T05:17:54;99485.28;;;15.42;53.65
77979;BME280;67169;50.268;8.694;2023-06-14T05:20:21;99499.81;;;15.56;53.95
77979;BME280;67169;50.268;8.694;2023-06-14T05:22:50;99483.16;;;15.48;53.92
77979;BME280;67169;50.268;8.694;2023-06-14T05:25:18;99499.03;;;15.54;53.90
77979;BME280;67169;50.268;8.694;2023-06-14T05:27:45;99501.38;;;15.60;54.01
77979;BME280;67169;50.268;8.694;2023-06-14T05:30:13;99497.59;;;15.62;54.49
77979;BME280;67169;50.268;8.694;2023-06-14T05:32:40;99497.22;;;15.69;54.21
77979;BME280;67169;50.268;8.694;2023-06-14T05:35:07;99500.38;;;15.61;54.37
77979;BME280;67169;50.268;8.694;2023-06-14T05:37:33;99511.03;;;15.64;54.89
77979;BME280;67169;50.268;8.694;2023-06-14T05:40:00;99505.28;;;15.70;55.04
77979;BME280;67169;50.268;8.694;2023-06-14T05:42:30;99509.91;;;15.82;54.44
77979;BME280;67169;50.268;8.694;2023-06-14T05:44:57;99517.75;;;15.87;53.94
77979;BME280;67169;50.268;8.694;2023-06-14T05:47:23;99517.94;;;15.98;53.88
77979;BME280;67169;50.268;8.694;2023-06-14T05:49:51;99516.94;;;15.99;54.17
77979;BME280;67169;50.268;8.694;2023-06-14T05:52:17;99528.38;;;16.19;54.46
77979;BME280;67169;50.268;8.694;2023-06-14T05:54:44;99516.03;;;16.27;53.75
77979;BME280;67169;50.268;8.694;2023-06-14T05:57:10;99509.34;;;16.33;53.51
77979;BME280;67169;50.268;8.694;2023-06-14T05:59:38;99514.22;;;16.28;53.92
77979;BME280;67169;50.268;8.694;2023-06-14T06:02:05;99526.56;;;16.46;53.45
77979;BME280;67169;50.268;8.694;2023-06-14T06:04:32;99526.75;;;16.43;53.23
77979;BME280;67169;50.268;8.694;2023-06-14T06:06:58;99525.53;;;16.61;53.21
77979;BME280;67169;50.268;8.694;2023-06-14T06:09:25;99523.78;;;16.60;53.45
77979;BME280;67169;50.268;8.694;2023-06-14T06:11:51;99531.34;;;16.70;53.02
77979;BME280;67169;50.268;8.694;2023-06-14T06:14:18;99529.97;;;16.77;52.89
77979;BME280;67169;50.268;8.694;2023-06-14T06:16:46;99514.38;;;16.93;52.55
77979;BME280;67169;50.268;8.694;2023-06-14T06:19:13;99532.22;;;16.97;52.26
77979;BME280;67169;50.268;8.694;2023-06-14T06:21:39;99540.16;;;17.00;51.72
77979;BME280;67169;50.268;8.694;2023-06-14T06:24:06;99530.44;;;16.96;52.02
77979;BME280;67169;50.268;8.694;2023-06-14T06:26:32;99545.09;;;17.21;51.85
77979;BME280;67169;50.268;8.694;2023-06-14T06:28:59;99541.47;;;17.20;51.63
77979;BME280;67169;50.268;8.694;2023-06-14T06:31:26;99556.41;;;17.40;51.70
77979;BME280;67169;50.268;8.694;2023-06-14T06:33:54;99546.88;;;17.60;51.12
77979;BME280;67169;50.268;8.694;2023-06-14T06:36:20;99547.88;;;17.85;51.36
77979;BME280;67169;50.268;8.694;2023-06-14T06:38:47;99544.81;;;17.89;49.88
77979;BME280;67169;50.268;8.694;2023-06-14T06:41:14;99559.91;;;17.68;50.05
77979;BME280;67169;50.268;8.694;2023-06-14T06:43:41;99542.56;;;17.83;49.81
77979;BME280;67169;50.268;8.694;2023-06-14T06:46:07;99549.72;;;17.97;49.71
77979;BME280;67169;50.268;8.694;2023-06-14T06:48:34;99548.66;;;17.87;49.06
77979;BME280;67169;50.268;8.694;2023-06-14T06:51:02;99554.69;;;18.16;49.68
77979;BME280;67169;50.268;8.694;2023-06-14T06:53:28;99562.06;;;18.26;49.41
77979;BME280;67169;50.268;8.694;2023-06-14T06:55:55;99549.94;;;18.43;48.24
77979;BME280;67169;50.268;8.694;2023-06-14T06:58:22;99555.41;;;18.43;49.88
77979;BME280;67169;50.268;8.694;2023-06-14T07:00:48;99564.41;;;18.57;48.91
77979;BME280;67169;50.268;8.694;2023-06-14T07:03:15;99560.03;;;18.54;48.67
77979;BME280;67169;50.268;8.694;2023-06-14T07:05:42;99563.19;;;18.24;50.33
77979;BME280;67169;50.268;8.694;2023-06-14T07:08:10;99563.97;;;18.00;50.03
77979;BME280;67169;50.268;8.694;2023-06-14T07:10:36;99572.22;;;18.24;50.19
77979;BME280;67169;50.268;8.694;2023-06-14T07:13:03;99562.59;;;18.68;49.84
77979;BME280;67169;50.268;8.694;2023-06-14T07:15:30;99528.00;;;18.58;48.63
77979;BME280;67169;50.268;8.694;2023-06-14T07:17:57;99571.75;;;19.04;47.03
77979;BME280;67169;50.268;8.694;2023-06-14T07:20:24;99563.63;;;18.91;47.73
77979;BME280;67169;50.268;8.694;2023-06-14T07:22:51;99566.69;;;18.63;48.54
77979;BME280;67169;50.268;8.694;2023-06-14T07:25:19;99537.09;;;18.45;48.46
77979;BME280;67169;50.268;8.694;2023-06-14T07:27:47;99564.25;;;18.34;49.21
77979;BME280;67169;50.268;8.694;2023-06-14T07:30:14;99572.13;;;18.63;48.79
77979;BME280;67169;50.268;8.694;2023-06-14T07:32:41;99577.41;;;18.90;48.98
77979;BME280;67169;50.268;8.694;2023-06-14T07:35:08;99569.53;;;18.85;47.51
77979;BME280;67169;50.268;8.694;2023-06-14T07:37:35;99562.31;;;18.73;47.36
77979;BME280;67169;50.268;8.694;2023-06-14T07:40:02;99564.81;;;18.76;48.14
77979;BME280;67169;50.268;8.694;2023-06-14T07:42:33;99564.72;;;19.13;47.46
77979;BME280;67169;50.268;8.694;2023-06-14T07:45:00;99568.41;;;19.71;45.81
77979;BME280;67169;50.268;8.694;2023-06-14T07:47:27;99557.63;;;19.81;45.79
77979;BME280;67169;50.268;8.694;2023-06-14T07:49:53;99558.25;;;19.84;47.14
77979;BME280;67169;50.268;8.694;2023-06-14T07:52:20;99556.75;;;19.80;45.35
77979;BME280;67169;50.268;8.694;2023-06-14T07:54:47;99569.34;;;19.59;43.76
77979;BME280;67169;50.268;8.694;2023-06-14T07:57:13;99560.88;;;19.51;44.91
77979;BME280;67169;50.268;8.694;2023-06-14T07:59:41;99563.25;;;20.24;42.47
77979;BME280;67169;50.268;8.694;2023-06-14T08:02:08;99561.34;;;20.47;42.64
77979;BME280;67169;50.268;8.694;2023-06-14T08:04:35;99569.31;;;20.39;41.38
77979;BME280;67169;50.268;8.694;2023-06-14T08:07:02;99562.25;;;20.25;42.54
77979;BME280;67169;50.268;8.694;2023-06-14T08:09:29;99565.19;;;20.33;42.38
77979;BME280;67169;50.268;8.694;2023-06-14T08:11:56;99567.09;;;20.55;42.67
77979;BME280;67169;50.268;8.694;2023-06-14T08:14:22;99567.06;;;20.44;42.30
77979;BME280;67169;50.268;8.694;2023-06-14T08:16:50;99570.28;;;20.72;40.81
77979;BME280;67169;50.268;8.694;2023-06-14T08:19:17;99575.53;;;21.07;39.87
77979;BME280;67169;50.268;8.694;2023-06-14T08:21:44;99579.59;;;21.13;40.34
77979;BME280;67169;50.268;8.694;2023-06-14T08:24:11;99577.41;;;21.06;40.41
77979;BME280;67169;50.268;8.694;2023-06-14T08:26:38;99571.00;;;21.17;39.83
77979;BME280;67169;50.268;8.694;2023-06-14T08:29:05;99574.47;;;21.19;40.83
77979;BME280;67169;50.268;8.694;2023-06-14T08:31:32;99568.84;;;21.00;40.57
77979;BME280;67169;50.268;8.694;2023-06-14T08:34:00;99575.81;;;20.93;40.30
77979;BME280;67169;50.268;8.694;2023-06-14T08:36:26;99573.63;;;20.64;41.14
77979;BME280;67169;50.268;8.694;2023-06-14T08:38:53;99569.03;;;21.08;40.09
77979;BME280;67169;50.268;8.694;2023-06-14T08:41:21;99584.44;;;21.20;41.07
77979;BME280;67169;50.268;8.694;2023-06-14T08:43:49;99574.19;;;21.33;38.35
77979;BME280;67169;50.268;8.694;2023-06-14T08:46:18;99577.22;;;21.51;38.31
77979;BME280;67169;50.268;8.694;2023-06-14T08:48:48;99571.78;;;21.08;39.59
77979;BME280;67169;50.268;8.694;2023-06-14T08:51:18;99540.56;;;21.43;38.69
77979;BME280;67169;50.268;8.694;2023-06-14T08:53:52;99568.72;;;21.22;37.41
77979;BME280;67169;50.268;8.694;2023-06-14T08:56:19;99566.88;;;21.76;38.27
77979;BME280;67169;50.268;8.694;2023-06-14T08:58:47;99570.56;;;21.65;36.93
77979;BME280;67169;50.268;8.694;2023-06-14T09:01:15;99552.28;;;21.96;38.02
77979;BME280;67169;50.268;8.694;2023-06-14T09:03:43;99572.41;;;22.47;38.20
77979;BME280;67169;50.268;8.694;2023-06-14T09:06:10;99562.97;;;22.70;35.96
77979;BME280;67169;50.268;8.694;2023-06-14T09:08:41;99557.38;;;22.91;37.03
77979;BME280;67169;50.268;8.694;2023-06-14T09:11:10;99563.38;;;23.16;35.96
77979;BME280;67169;50.268;8.694;2023-06-14T09:13:37;99577.53;;;23.40;36.98
77979;BME280;67169;50.268;8.694;2023-06-14T09:16:04;99590.22;;;22.62;35.53
77979;BME280;67169;50.268;8.694;2023-06-14T09:18:35;99584.44;;;23.25;34.80
77979;BME280;67169;50.268;8.694;2023-06-14T09:21:02;99577.44;;;22.11;37.31
77979;BME280;67169;50.268;8.694;2023-06-14T09:23:28;99583.81;;;22.42;37.27
77979;BME280;67169;50.268;8.694;2023-06-14T09:25:57;99583.19;;;22.08;37.21
77979;BME280;67169;50.268;8.694;2023-06-14T09:28:27;99589.75;;;21.96;38.30
77979;BME280;67169;50.268;8.694;2023-06-14T09:30:53;99587.78;;;22.08;39.14
77979;BME280;67169;50.268;8.694;2023-06-14T09:33:20;99584.28;;;23.07;36.61
77979;BME280;67169;50.268;8.694;2023-06-14T09:35:51;99590.63;;;23.66;37.52
77979;BME280;67169;50.268;8.694;2023-06-14T09:38:17;99583.44;;;24.22;34.05
77979;BME280;67169;50.268;8.694;2023-06-14T09:40:44;99594.72;;;23.81;34.45
77979;BME280;67169;50.268;8.694;2023-06-14T09:43:12;99595.84;;;23.20;34.24
77979;BME280;67169;50.268;8.694;2023-06-14T09:45:39;99588.63;;;23.29;34.67
77979;BME280;67169;50.268;8.694;2023-06-14T09:48:06;99590.81;;;23.35;34.61
77979;BME280;67169;50.268;8.694;2023-06-14T09:50:32;99594.84;;;23.21;35.93
77979;BME280;67169;50.268;8.694;2023-06-14T09:53:03;99594.97;;;23.39;34.44
77979;BME280;67169;50.268;8.694;2023-06-14T09:55:34;99597.88;;;22.99;35.90
77979;BME280;67169;50.268;8.694;2023-06-14T09:58:04;99601.25;;;22.41;36.40
77979;BME280;67169;50.268;8.694;2023-06-14T10:00:32;99588.44;;;22.92;34.72
77979;BME280;67169;50.268;8.694;2023-06-14T10:03:03;99594.56;;;23.54;35.37
77979;BME280;67169;50.268;8.694;2023-06-14T10:05:34;99591.84;;;22.84;36.71
77979;BME280;67169;50.268;8.694;2023-06-14T10:08:04;99592.44;;;22.78;38.16
77979;BME280;67169;50.268;8.694;2023-06-14T10:10:34;99586.16;;;23.36;35.48
77979;BME280;67169;50.268;8.694;2023-06-14T10:13:00;99589.38;;;23.51;35.71
77979;BME280;67169;50.268;8.694;2023-06-14T10:15:32;99576.19;;;24.30;34.95
77979;BME280;67169;50.268;8.694;2023-06-14T10:18:07;99580.59;;;24.13;35.80
77979;BME280;67169;50.268;8.694;2023-06-14T10:20:42;99573.13;;;24.98;32.81
77979;BME280;67169;50.268;8.694;2023-06-14T10:23:17;99578.13;;;25.30;32.30
77979;BME280;67169;50.268;8.694;2023-06-14T10:25:44;99573.72;;;25.20;32.78
77979;BME280;67169;50.268;8.694;2023-06-14T10:28:16;99575.75;;;25.18;32.47
77979;BME280;67169;50.268;8.694;2023-06-14T10:31:02;99581.25;;;25.36;32.56
77979;BME280;67169;50.268;8.694;2023-06-14T10:33:30;99576.34;;;25.83;33.09
77979;BME280;67169;50.268;8.694;2023-06-14T10:36:26;99574.88;;;25.97;32.35
77979;BME280;67169;50.268;8.694;2023-06-14T10:39:00;99576.78;;;26.22;31.48
77979;BME280;67169;50.268;8.694;2023-06-14T10:41:28;99576.44;;;26.25;30.81
77979;BME280;67169;50.268;8.694;2023-06-14T10:46:52;99573.00;;;24.90;32.56
77979;BME280;67169;50.268;8.694;2023-06-14T10:49:36;99580.91;;;24.10;33.75
77979;BME280;67169;50.268;8.694;2023-06-14T10:52:08;99581.78;;;24.01;34.71
77979;BME280;67169;50.268;8.694;2023-06-14T10:54:37;99572.19;;;24.15;35.27
77979;BME280;67169;50.268;8.694;2023-06-14T10:57:06;99564.34;;;24.30;33.52
77979;BME280;67169;50.268;8.694;2023-06-14T10:59:32;99573.00;;;24.90;33.25
77979;BME280;67169;50.268;8.694;2023-06-14T11:02:33;99569.94;;;24.93;31.62
77979;BME280;67169;50.268;8.694;2023-06-14T11:05:08;99573.28;;;24.32;34.01
77979;BME280;67169;50.268;8.694;2023-06-14T11:07:55;99573.97;;;24.06;33.83
77979;BME280;67169;50.268;8.694;2023-06-14T11:10:32;99582.41;;;23.95;34.98
77979;BME280;67169;50.268;8.694;2023-06-14T11:13:03;99591.81;;;23.54;34.01
77979;BME280;67169;50.268;8.694;2023-06-14T11:15:29;99573.75;;;23.71;34.08
77979;BME280;67169;50.268;8.694;2023-06-14T11:17:57;99574.34;;;24.86;37.88
77979;BME280;67169;50.268;8.694;2023-06-14T11:20:26;99573.59;;;26.09;31.34
77979;BME280;67169;50.268;8.694;2023-06-14T11:22:53;99575.56;;;26.25;32.76
77979;BME280;67169;50.268;8.694;2023-06-14T11:25:20;99568.66;;;26.21;28.33
77979;BME280;67169;50.268;8.694;2023-06-14T11:27:49;99570.88;;;26.43;30.31
77979;BME280;67169;50.268;8.694;2023-06-14T11:30:15;99561.66;;;26.61;29.60
77979;BME280;67169;50.268;8.694;2023-06-14T11:32:42;99560.88;;;26.85;30.58
77979;BME280;67169;50.268;8.694;2023-06-14T11:35:09;99557.47;;;26.99;28.18
77979;BME280;67169;50.268;8.694;2023-06-14T11:37:37;99552.38;;;26.70;27.79
77979;BME280;67169;50.268;8.694;2023-06-14T11:40:07;99569.00;;;25.92;30.66
77979;BME280;67169;50.268;8.694;2023-06-14T11:42:35;99574.31;;;25.49;30.88
77979;BME280;67169;50.268;8.694;2023-06-14T11:45:02;99568.19;;;24.74;32.49
77979;BME280;67169;50.268;8.694;2023-06-14T11:47:31;99565.94;;;24.60;31.81
77979;BME280;67169;50.268;8.694;2023-06-14T11:49:58;99574.72;;;25.37;32.29
77979;BME280;67169;50.268;8.694;2023-06-14T11:52:25;99572.88;;;25.09;31.05
77979;BME280;67169;50.268;8.694;2023-06-14T11:54:53;99568.41;;;24.81;31.38
77979;BME280;67169;50.268;8.694;2023-06-14T11:57:20;99566.25;;;24.57;32.84
77979;BME280;67169;50.268;8.694;2023-06-14T11:59:47;99568.59;;;24.52;31.47
77979;BME280;67169;50.268;8.694;2023-06-14T12:02:15;99577.28;;;25.02;31.01
77979;BME280;67169;50.268;8.694;2023-06-14T12:04:42;99572.41;;;26.46;31.31
77979;BME280;67169;50.268;8.694;2023-06-14T12:07:09;99569.75;;;26.54;28.74
77979;BME280;67169;50.268;8.694;2023-06-14T12:09:39;99569.81;;;26.36;28.92
77979;BME280;67169;50.268;8.694;2023-06-14T12:12:08;99571.31;;;26.04;29.95
77979;BME280;67169;50.268;8.694;2023-06-14T12:14:36;99572.47;;;26.20;28.91
77979;BME280;67169;50.268;8.694;2023-06-14T12:17:06;99571.22;;;25.88;29.20
77979;BME280;67169;50.268;8.694;2023-06-14T12:19:33;99571.75;;;25.30;31.07
77979;BME280;67169;50.268;8.694;2023-06-14T12:22:09;99563.09;;;24.97;31.24
77979;BME280;67169;50.268;8.694;2023-06-14T12:24:36;99575.22;;;25.04;31.92
77979;BME280;67169;50.268;8.694;2023-06-14T12:27:03;99562.75;;;24.65;30.64
77979;BME280;67169;50.268;8.694;2023-06-14T12:29:32;99568.00;;;25.75;29.52
77979;BME280;67169;50.268;8.694;2023-06-14T12:31:58;99577.19;;;25.84;29.76
77979;BME280;67169;50.268;8.694;2023-06-14T12:34:25;99570.63;;;25.58;30.12
77979;BME280;67169;50.268;8.694;2023-06-14T12:36:53;99566.25;;;25.30;30.84
77979;BME280;67169;50.268;8.694;2023-06-14T12:39:19;99562.06;;;26.14;30.34
77979;BME280;67169;50.268;8.694;2023-06-14T12:41:46;99557.06;;;25.83;28.09
77979;BME280;67169;50.268;8.694;2023-06-14T12:44:14;99552.00;;;25.78;29.62
77979;BME280;67169;50.268;8.694;2023-06-14T12:46:42;99559.50;;;25.68;30.70
77979;BME280;67169;50.268;8.694;2023-06-14T12:49:10;99558.94;;;26.69;29.18
77979;BME280;67169;50.268;8.694;2023-06-14T12:51:36;99563.34;;;27.04;31.02
77979;BME280;67169;50.268;8.694;2023-06-14T12:54:03;99576.38;;;26.43;32.13
77979;BME280;67169;50.268;8.694;2023-06-14T12:56:30;99573.56;;;26.61;29.80
77979;BME280;67169;50.268;8.694;2023-06-14T12:58:58;99569.28;;;26.41;29.89
77979;BME280;67169;50.268;8.694;2023-06-14T13:01:25;99573.53;;;25.39;32.03
77979;BME280;67169;50.268;8.694;2023-06-14T13:03:53;99579.47;;;25.26;33.27
77979;BME280;67169;50.268;8.694;2023-06-14T13:06:21;99582.91;;;25.01;33.37